Nearby METAR Reports

 

KEQY - Monroe, North Carolina, USA
Distance from station: S 11mi, 18km
Updated: Tue, 05/31/2016 9:53pm EDT
NOT Current
Few Clouds
Few Clouds
 Wind from NE
Wind: NE 8 mph , 13 km/h
Temperature: 73°F , 23°C
Dew Point: 64°F , 18°C
Humidity: 74%
Barometer: 29.96 inHg , 1014.6 hPa
Clouds: Few Clouds
Visibility: 10 miles , 16 km
Cloud details: Few Clouds 12000 ft
2016/06/01 01:53 KEQY 010153Z AUTO 04007KT 10SM FEW120 23/18 A2996 RMK AO2 SLP144 T02330183 TSNO $
KJQF - Concord Reg Arpt, North Carolina, USA
Distance from station: NNW 16mi, 25km
Updated: Wed, 06/01/2016 1:15am EDT
Clear
Clear
 Wind from calm
Wind: Calm
Temperature: 68°F , 20°C
Dew Point: 64°F , 18°C
Humidity: 88%
Barometer: 30.03 inHg , 1016.9 hPa
Clouds: Clear
Visibility: 10 miles , 16 km
2016/06/01 05:15 KJQF 010515Z AUTO 00000KT 10SM CLR 20/18 A3003 RMK AO2
 
KCLT - Charlotte, North Carolina, USA
Distance from station: W 20mi, 33km
Updated: Wed, 06/01/2016 12:52am EDT
Few Clouds
Few Clouds
 Wind from calm
Wind: Calm
Temperature: 68°F , 20°C
Dew Point: 64°F , 18°C
Humidity: 88%
Barometer: 30.00 inHg , 1015.9 hPa
Clouds: Few Clouds
Visibility: 10 miles , 16 km
Cloud details: Few Clouds 25000 ft
2016/06/01 04:52 KCLT 010452Z 00000KT 10SM FEW250 20/18 A3000 RMK AO2 SLP150 T02000183 403110178
KUZA - Rock Hill, South Carolina, USA
Distance from station: WSW 29mi, 47km
Updated: Wed, 06/01/2016 12:54am EDT
Clear
Clear
 Wind from calm
Wind: Calm
Temperature: 68°F , 20°C
Dew Point: 66°F , 19°C
Humidity: 94%
Barometer: 30.00 inHg , 1015.9 hPa
Clouds: Clear
Visibility: 7 miles , 11 km
2016/06/01 04:54 KUZA 010454Z AUTO 00000KT 7SM CLR 20/19 A3000 RMK AO2 SLP146 T02000194 403110178
 
KVUJ - Albemarle Stanly, North Carolina, USA
Distance from station: NE 30mi, 48km
Updated: Wed, 06/01/2016 1:05am EDT
Clear
Clear
 Wind from calm
Wind: Calm
Temperature: 66°F , 19°C
Dew Point: 66°F , 19°C
Humidity: 100%
Barometer: 30.04 inHg , 1017.3 hPa
Clouds: Clear
Visibility: 10 miles , 16 km
2016/06/01 05:05 KVUJ 010505Z AUTO 00000KT 10SM CLR 19/19 A3004 RMK AO2 LTG DSNT E T01940194
KAFP - Wadesboro/Anson, North Carolina, USA
Distance from station: ESE 31mi, 50km
Updated: Wed, 06/01/2016 1:10am EDT
Clear
Clear
 Wind from calm
Wind: Calm
Temperature: 70°F , 21°C
Dew Point: 70°F , 21°C
Humidity: 100%
Barometer: 29.98 inHg , 1015.2 hPa
Clouds: Clear
Visibility: 10 miles , 16 km
2016/06/01 05:10 KAFP 010510Z AUTO 00000KT 10SM CLR 21/21 A2998 RMK AO2 T02070207
 
KAKH - Gastonia, North Carolina, USA
Distance from station: W 31mi, 51km
Updated: Wed, 06/01/2016 12:54am EDT
Clear
Clear
 Wind from NE
Wind: NE 5 mph , 7 km/h
Temperature: 68°F , 20°C
Dew Point: 64°F , 18°C
Humidity: 88%
Barometer: 29.99 inHg , 1015.6 hPa
Clouds: Clear
Visibility: 10 miles , 16 km
2016/06/01 04:54 KAKH 010454Z AUTO 04004KT 10SM CLR 20/18 A2999 RMK AO2 SLP149 T02000178 403110183 TSNO
KRUQ - Salisbury Rowan, North Carolina, USA
Distance from station: N 33mi, 53km
Updated: Wed, 06/01/2016 1:10am EDT
Partly cloudy
Partly cloudy
 Wind from calm
Wind: Calm
Temperature: 68°F , 20°C
Dew Point: 68°F , 20°C
Humidity: 100%
Barometer: 30.00 inHg , 1015.9 hPa
Clouds: Partly cloudy
Visibility: 10 miles , 16 km
Cloud details: Partly cloudy 4200 ft
Partly cloudy 4800 ft
2016/06/01 05:10 KRUQ 010510Z AUTO 00000KT 10SM SCT042 SCT048 20/20 A3000 RMK AO2 T01980198
 
KLKR - Lancaster, South Carolina, USA
Distance from station: SSW 35mi, 57km
Updated: Wed, 06/01/2016 1:15am EDT
Clear
Clear
 Wind from E
Wind: E 5 mph , 7 km/h
Temperature: 66°F , 19°C
Dew Point: 66°F , 19°C
Humidity: 100%
Barometer: 29.99 inHg , 1015.6 hPa
Clouds: Clear
Visibility: 10 miles , 16 km
2016/06/01 05:15 KLKR 010515Z AUTO 08004KT 10SM CLR 19/19 A2999 RMK AO2 PWINO
KIPJ - Lincolnton, North Carolina, USA
Distance from station: WNW 39mi, 62km
Updated: Wed, 06/01/2016 1:15am EDT
Clear
Clear
 Wind from calm
Wind: Calm
Temperature: 66°F , 19°C
Dew Point: 66°F , 19°C
Humidity: 100%
Barometer: 30.02 inHg , 1016.6 hPa
Clouds: Clear
Visibility: 10 miles , 16 km
2016/06/01 05:15 KIPJ 010515Z AUTO 00000KT 10SM CLR 19/19 A3002 RMK AO2 T01930189
 
KDCM - Chester Catawba, South Carolina, USA
Distance from station: SW 44mi, 71km
Updated: Wed, 06/01/2016 1:15am EDT
Clear
Clear
 Wind from NNE
Wind: NNE 3 mph , 6 km/h
Temperature: 68°F , 20°C
Dew Point: 66°F , 19°C
Humidity: 94%
Barometer: 29.99 inHg , 1015.6 hPa
Clouds: Clear
Visibility: 7 miles , 11 km
2016/06/01 05:15 KDCM 010515Z AUTO 02003KT 7SM CLR 20/19 A2999 RMK AO2
KSVH - Statesville, North Carolina, USA
Distance from station: NNW 44mi, 71km
Updated: Wed, 06/01/2016 1:10am EDT
Clear
Clear
 Wind from calm
Wind: Calm
Temperature: 64°F , 18°C
Dew Point: 64°F , 18°C
Humidity: 100%
Barometer: 30.01 inHg , 1016.3 hPa
Clouds: Clear
Visibility: 10 miles , 16 km
2016/06/01 05:10 KSVH 010510Z AUTO 00000KT 10SM CLR 18/18 A3001 RMK AO2 T01820182
 
KEXX - Davidson Cty Ap, North Carolina, USA
Distance from station: NNE 45mi, 72km
Updated: Wed, 06/01/2016 1:10am EDT
Partly cloudy
Partly cloudy
 Wind from calm
Wind: Calm
Temperature: 68°F , 20°C
Dew Point: 66°F , 19°C
Humidity: 94%
Barometer: 30.00 inHg , 1015.9 hPa
Clouds: Partly cloudy
Visibility: 7 miles , 11 km
Cloud details: Partly cloudy 3700 ft
Partly cloudy 11000 ft
2016/06/01 05:10 KEXX 010510Z AUTO 00000KT 7SM SCT037 SCT110 20/19 A3000 RMK AO2 T01950189
KCQW - Cheraw, South Carolina, USA
Distance from station: SE 49mi, 78km
Updated: Wed, 06/01/2016 1:15am EDT
Clear
Clear
 Wind from calm
Wind: Calm
Temperature: 68°F , 20°C
Dew Point: 68°F , 20°C
Humidity: 100%
Barometer: 29.97 inHg , 1014.9 hPa
Clouds: Clear
Visibility: 9 miles , 14 km
2016/06/01 05:15 KCQW 010515Z AUTO 00000KT 9SM CLR 20/20 A2997 RMK AO2